Saturday, November 18, 2017, 9:38 PM EST
Back to Local

KBAF, Westfield Barnes Municipal

Location: Westfield, MA, United States Lat: 42.167
Local Time: 9:38 PM EST ( 2:38 GMT) Lon: -72.717
Time Zone: US/Eastern Elev: 272 ft

Show me the last for .
Show Decoded

2017-11-18 21:15 METAR KBAF 190215Z 32003KT 9SM OVC009 02/01 A2954 RMK AO2 RAB0158E11 P0000
                 T00170011 =
2017-11-18 20:53 METAR KBAF 190153Z 00000KT 8SM BKN011 OVC035 01/01 A2953 RMK AO2 RAB0055E04
                 PRESFR SLP008 P0000 T00110011 =
2017-11-18 20:20 METAR KBAF 190120Z 00000KT 10SM BKN012 OVC037 01/01 A2957 RMK AO2 RAB0055E04
                 P0000 T00110006 =
2017-11-18 19:53 METAR KBAF 190053Z 01003KT 10SM FEW015 OVC036 01/00 A2958 RMK AO2 RAE52 SLP024
                 P0003 T00110000 =
2017-11-18 19:45 METAR KBAF 190045Z 00000KT 10SM -RA SCT015 OVC035 01/01 A2959 RMK AO2 P0003
                 T00110006 =
2017-11-18 19:19 METAR KBAF 190019Z 30003KT 8SM -RA FEW017 BKN024 OVC039 01/00 A2961 RMK AO2
                 P0003 T00110000 =
2017-11-18 18:53 METAR KBAF 182353Z 00000KT 7SM -RA FEW022 BKN035 OVC043 01/00 A2962 RMK AO2
                 RAB27 SLP037 P0001 60002 T00110000 10028 20011 58016 =
2017-11-18 18:09 METAR KBAF 182309Z 36005KT 10SM FEW028 SCT032 OVC047 01/00 A2965 RMK AO2
                 T00110000 =
2017-11-18 17:53 METAR KBAF 182253Z 34005KT 10SM OVC028 01/00 A2966 RMK AO2 SLP049 T00110000 =
2017-11-18 17:51 METAR KBAF 182251Z 35004KT 10SM OVC028 01/00 A2966 RMK AO2 =
2017-11-18 16:53 METAR KBAF 182153Z 36005KT 10SM OVC060 01/M01 A2966 RMK AO2 RAE22UPB20E21 SLP051
                 P0000 T00111006 =
2017-11-18 15:53 METAR KBAF 182053Z 02004KT 10SM -RA BKN080 OVC095 02/M01 A2970 RMK AO2 RAB07
                 SLP064 P0001 60001 T00171011 56034 =
2017-11-18 14:53 METAR KBAF 181953Z 23003KT 10SM FEW080 BKN100 BKN120 03/M04 A2971 RMK AO2 SLP066
                 T00281044 =
2017-11-18 13:53 METAR KBAF 181853Z 19003KT 10SM OVC110 03/M05 A2975 RMK AO2 SLP081 T00281050 =
2017-11-18 12:53 METAR KBAF 181753Z 00000KT 10SM CLR 02/M06 A2980 RMK AO2 SLP098 T00221056 10022
                 21067 56043 =
2017-11-18 11:53 METAR KBAF 181653Z 19003KT 10SM BKN110 02/M06 A2983 RMK AO2 SLP108 T00171056 =
2017-11-18 10:53 METAR KBAF 181553Z 00000KT 10SM CLR 00/M06 A2988 RMK AO2 PRESFR SLP125 T00001061
                 =
2017-11-18 09:53 METAR KBAF 181453Z 00000KT 10SM CLR M02/M07 A2993 RMK AO2 SLP141 T10171067 56017
                 =
2017-11-18 08:53 METAR KBAF 181353Z 00000KT 10SM CLR M03/M06 A2994 RMK AO2 SLP146 T10281056 =
2017-11-18 07:53 METAR KBAF 181253Z 00000KT 10SM CLR M04/M06 A2996 RMK AO2 SLP153 T10391056 =
2017-11-18 06:53 METAR KBAF 181153Z 00000KT 10SM CLR M07/M08 A2998 RMK AO2 SLP159 T10671078 11033
                 21067 56004 =
2017-11-18 05:53 METAR KBAF 181053Z AUTO 00000KT 10SM CLR M06/M08 A2998 RMK AO2 SLP159 T10611078
                 =
2017-11-18 04:53 METAR KBAF 180953Z AUTO 00000KT 10SM CLR M06/M08 A2998 RMK AO2 SLP158 T10611078
                 =
2017-11-18 03:53 METAR KBAF 180853Z AUTO 00000KT 10SM CLR M06/M07 A2999 RMK AO2 SLP162 T10561072
                 55007 =
2017-11-18 02:53 METAR KBAF 180753Z AUTO 00000KT 10SM CLR M05/M06 A2999 RMK AO2 SLP160 T10501061
                 =
2017-11-18 01:53 METAR KBAF 180653Z AUTO 14003KT 10SM CLR M06/M08 A3001 RMK AO2 SLP167 T10561083
                 =
2017-11-18 00:53 METAR KBAF 180553Z AUTO 00000KT 10SM FEW120 M04/M08 A3001 RMK AO2 SLP168
                 T10391078 10011 21044 58003 =
2017-11-17 23:53 METAR KBAF 180453Z AUTO 30007KT 10SM CLR M01/M08 A3002 RMK AO2 SLP173 T10111083
                 400561044 =
2017-11-17 22:53 METAR KBAF 180353Z AUTO 26006KT 10SM CLR M03/M07 A3002 RMK AO2 SLP172 T10281072
                 =
2017-11-17 21:53 METAR KBAF 180253Z 00000KT 10SM CLR M03/M08 A3002 RMK AO2 SLP171 T10281078 58001
                 =

Support USWX by starting your Amazon purchase here.